Saturday, December 3, 2016, 10:35 AM EST

KJYO, Leesburg / Godfrey

Location: Leesburg, VA, United States Lat: 39.083
Local Time: 10:35 AM EST (15:35 GMT) Lon: -77.567
Time Zone: US/Eastern Elev: 390 ft

Show me the last for .
Show Decoded

2016-12-03 10:15 METAR KJYO 031515Z AUTO 30016G19KT 10SM OVC046 07/00 A3027 RMK AO2 =
2016-12-03 09:55 METAR KJYO 031455Z AUTO 29014G18KT 10SM OVC046 07/00 A3026 RMK AO2 =
2016-12-03 09:35 METAR KJYO 031435Z AUTO 27013G17KT 10SM OVC046 06/00 A3025 RMK AO2 =
2016-12-03 09:15 METAR KJYO 031415Z AUTO 30011KT 10SM OVC046 06/00 A3024 RMK AO2 =
2016-12-03 08:55 METAR KJYO 031355Z AUTO 27011G17KT 10SM OVC046 06/00 A3024 RMK AO2 =
2016-12-03 08:35 METAR KJYO 031335Z AUTO 28012KT 10SM OVC044 06/00 A3024 RMK AO2 =
2016-12-03 08:15 METAR KJYO 031315Z AUTO 27009KT 10SM OVC042 06/00 A3024 RMK AO2 =
2016-12-03 07:55 METAR KJYO 031255Z AUTO 27010KT 10SM BKN044 05/00 A3023 RMK AO2 =
2016-12-03 07:35 METAR KJYO 031235Z AUTO 27007KT 10SM OVC044 05/00 A3022 RMK AO2 =
2016-12-03 07:15 METAR KJYO 031215Z AUTO 27004KT 10SM BKN044 05/00 A3021 RMK AO2 =
2016-12-03 06:55 METAR KJYO 031155Z AUTO 29007KT 10SM SCT044 05/00 A3021 RMK AO2 =
2016-12-03 06:35 METAR KJYO 031135Z AUTO 29013G17KT 10SM CLR 05/00 A3019 RMK AO2 =
2016-12-03 06:15 METAR KJYO 031115Z AUTO 29010KT 10SM SCT046 05/00 A3019 RMK AO2 =
2016-12-03 05:55 METAR KJYO 031055Z AUTO 31008KT 10SM SCT046 05/00 A3019 RMK AO2 =
2016-12-03 05:35 METAR KJYO 031035Z AUTO 29007G14KT 10SM CLR 05/00 A3018 RMK AO2 =
2016-12-03 05:15 METAR KJYO 031015Z AUTO 29011G17KT 10SM CLR 05/00 A3017 RMK AO2 =
2016-12-03 04:55 METAR KJYO 030955Z AUTO 27009G14KT 10SM SCT042 SCT050 05/00 A3016 RMK AO2 =
2016-12-03 04:35 METAR KJYO 030935Z AUTO 27008G14KT 10SM SCT042 BKN050 06/00 A3016 RMK AO2 =
2016-12-03 04:15 METAR KJYO 030915Z AUTO 29006G18KT 10SM OVC042 06/00 A3016 RMK AO2 =
2016-12-03 03:55 METAR KJYO 030855Z AUTO 31009KT 10SM OVC044 06/00 A3014 RMK AO2 =
2016-12-03 03:15 METAR KJYO 030815Z AUTO 31009G15KT 10SM OVC038 06/00 A3014 RMK AO2 =
2016-12-03 02:55 METAR KJYO 030755Z AUTO 31008G14KT 10SM OVC040 06/00 A3015 RMK AO2 =
2016-12-03 02:15 METAR KJYO 030715Z AUTO 28008KT 10SM OVC042 06/00 A3015 RMK AO2 =
2016-12-03 01:35 METAR KJYO 030635Z AUTO 25005KT 10SM OVC040 06/00 A3014 RMK AO2 =
2016-12-03 01:15 METAR KJYO 030615Z AUTO 10SM BKN042 OVC048 06/00 A3014 RMK AO2 =
2016-12-03 00:55 METAR KJYO 030555Z AUTO 25005KT 10SM BKN042 OVC050 06/00 A3014 RMK AO2 =
2016-12-03 00:35 METAR KJYO 030535Z AUTO 10SM OVC042 06/00 A3015 RMK AO2 =
2016-12-03 00:15 METAR KJYO 030515Z AUTO 26006KT 10SM OVC044 06/00 A3014 RMK AO2 =
2016-12-02 23:55 METAR KJYO 030455Z AUTO 25008KT 10SM OVC044 06/00 A3014 RMK AO2 =
2016-12-02 23:35 METAR KJYO 030435Z AUTO 28006KT 10SM BKN046 OVC065 06/00 A3013 RMK AO2 =
2016-12-02 22:55 METAR KJYO 030355Z AUTO 27010G14KT 230V290 10SM BKN050 BKN065 06/M01 A3013 RMK
                 AO2 =
2016-12-02 22:35 METAR KJYO 030335Z AUTO 27014G19KT 10SM BKN065 06/M01 A3012 RMK AO2 =
2016-12-02 22:15 METAR KJYO 030315Z AUTO 26007KT 10SM OVC060 06/M01 A3012 RMK AO2 =
2016-12-02 21:55 METAR KJYO 030255Z AUTO 24007G15KT 10SM OVC060 06/M01 A3011 RMK AO2 =
2016-12-02 21:35 METAR KJYO 030235Z AUTO 26013G25KT 210V280 10SM OVC060 06/M01 A3011 RMK AO2 =
2016-12-02 21:15 METAR KJYO 030215Z AUTO 27012G22KT 10SM SCT045 OVC060 06/00 A3011 RMK AO2 =
2016-12-02 20:55 METAR KJYO 030155Z AUTO 30017G23KT 10SM OVC047 06/00 A3012 RMK AO2 =
2016-12-02 20:35 METAR KJYO 030135Z AUTO 29016G22KT 10SM BKN045 OVC050 06/00 A3012 RMK AO2 =
2016-12-02 20:15 METAR KJYO 030115Z AUTO 28011G18KT 10SM OVC048 06/00 A3011 RMK AO2 =
2016-12-02 19:55 METAR KJYO 030055Z AUTO 29012G19KT 10SM OVC048 06/00 A3011 RMK AO2 =
2016-12-02 19:35 METAR KJYO 030035Z AUTO 29010G18KT 10SM OVC046 06/00 A3012 RMK AO2 =
2016-12-02 19:15 METAR KJYO 030015Z AUTO 28014G20KT 10SM OVC044 06/00 A3012 RMK AO2 =
2016-12-02 18:55 METAR KJYO 022355Z AUTO 28011G18KT 10SM BKN040 OVC047 06/00 A3012 RMK AO2 =
2016-12-02 18:35 METAR KJYO 022335Z AUTO 29014G20KT 10SM OVC040 06/00 A3012 RMK AO2 =
2016-12-02 18:15 METAR KJYO 022315Z AUTO 28016G21KT 10SM OVC040 06/00 A3011 RMK AO2 =
2016-12-02 17:55 METAR KJYO 022255Z AUTO 31014G19KT 10SM OVC040 06/00 A3010 RMK AO2 =
2016-12-02 17:35 METAR KJYO 022235Z AUTO 31014G18KT 10SM OVC042 06/00 A3010 RMK AO2 =
2016-12-02 17:15 METAR KJYO 022215Z AUTO 29014G23KT 10SM OVC042 07/00 A3010 RMK AO2 =
2016-12-02 16:55 METAR KJYO 022155Z AUTO 29011KT 10SM OVC046 07/00 A3009 RMK AO2 =
2016-12-02 16:35 METAR KJYO 022135Z AUTO 31014G19KT 10SM OVC048 07/00 A3009 RMK AO2 =
2016-12-02 16:15 METAR KJYO 022115Z AUTO 31011G19KT 10SM OVC050 07/01 A3008 RMK AO2 =
2016-12-02 15:55 METAR KJYO 022055Z AUTO 32018G24KT 10SM BKN050 07/00 A3008 RMK AO2 =
2016-12-02 15:35 METAR KJYO 022035Z AUTO 32017G20KT 10SM SCT050 07/00 A3007 RMK AO2 =
2016-12-02 15:15 METAR KJYO 022015Z AUTO 30017G22KT 10SM SCT050 08/01 A3006 RMK AO2 =
2016-12-02 14:55 METAR KJYO 021955Z AUTO 31013G17KT 10SM SCT050 08/01 A3006 RMK AO2 =
2016-12-02 14:35 METAR KJYO 021935Z AUTO 31015G23KT 10SM SCT050 10/01 A3005 RMK AO2 =
2016-12-02 14:15 METAR KJYO 021915Z AUTO 32011G15KT 10SM CLR 09/00 A3005 RMK AO2 =
2016-12-02 13:55 METAR KJYO 021855Z AUTO 32014KT 10SM SCT049 BKN055 10/01 A3004 RMK AO2 =
2016-12-02 13:35 METAR KJYO 021835Z AUTO 31010KT 10SM OVC049 08/00 A3005 RMK AO2 =
2016-12-02 13:15 METAR KJYO 021815Z AUTO 32011KT 10SM OVC049 09/01 A3005 RMK AO2 =
2016-12-02 12:55 METAR KJYO 021755Z AUTO 32013KT 10SM OVC049 09/00 A3005 RMK AO2 =
2016-12-02 12:35 METAR KJYO 021735Z AUTO 31011KT 270V330 10SM BKN049 10/01 A3005 RMK AO2 =
2016-12-02 12:15 METAR KJYO 021715Z AUTO 32015G19KT 10SM CLR 10/01 A3005 RMK AO2 =
2016-12-02 11:55 METAR KJYO 021655Z AUTO 31013G20KT 10SM SCT044 10/01 A3005 RMK AO2 =
2016-12-02 11:35 METAR KJYO 021635Z AUTO 30012KT 10SM BKN044 10/01 A3006 RMK AO2 =
2016-12-02 11:15 METAR KJYO 021615Z AUTO 28010KT 10SM BKN044 10/01 A3007 RMK AO2 =
2016-12-02 10:55 METAR KJYO 021555Z AUTO 32010G14KT 10SM BKN046 10/01 A3008 RMK AO2 =

Support USWX by starting your Amazon purchase here.